Terminal Aerodrome Forecast
Issued by NWS Nashville, TN

Home | Current Version | Previous Version | Text Only | Print | Product List | Glossary On
Versions: 1 2 3 4 5 6 7 8 9 10 11 12 13
000
FTUS44 KOHX 210500
TAFBNA
TAF
KBNA 210529Z 2106/2206 VRB03KT P6SM SCT250
     FM211400 21008KT P6SM SCT060 BKN250
     FM220000 23004KT P6SM VCSH OVC060=

USA.gov is the U.S. government's official web portal to all federal, state and local government web resources and services.